Time;durP1;ratioP1;P1;durP2;ratioP2;P2;SDS_P1;SDS_P2;PMS_P1;PMS_P2;Temp;Humidity;BMP_temperature;BMP_pressure;BME280_temperature;BME280_humidity;BME280_pressure;Samples;Min_cycle;Max_cycle;Signal;HPM_P1;HPM_P2
2022/05/17 00:01:01;;;;;;;33.10;8.38;;;14.90;99.90;;;;;;5091724;28;20044;-79
2022/05/17 00:03:27;;;;;;;25.85;8.20;;;15.00;99.90;;;;;;5098046;28;20112;-78
2022/05/17 00:06:30;;;;;;;30.77;9.00;;;14.90;99.90;;;;;;5098547;28;20043;-79
2022/05/17 00:08:58;;;;;;;26.35;8.45;;;14.90;99.90;;;;;;5096242;28;20035;-77
2022/05/17 00:11:24;;;;;;;33.03;8.50;;;14.80;99.90;;;;;;5095332;28;20163;-77
2022/05/17 00:13:50;;;;;;;29.77;8.25;;;14.80;99.90;;;;;;5097301;28;20147;-78
2022/05/17 00:16:16;;;;;;;34.20;8.45;;;14.80;99.90;;;;;;5071292;28;20083;-78
2022/05/17 00:18:42;;;;;;;24.75;7.93;;;14.80;99.90;;;;;;5075887;28;20419;-78
2022/05/17 00:21:08;;;;;;;31.80;8.32;;;14.70;99.90;;;;;;5073360;28;20044;-77
2022/05/17 00:23:38;;;;;;;31.55;8.10;;;14.70;99.90;;;;;;5074328;28;20035;-78
2022/05/17 00:26:06;;;;;;;28.92;7.82;;;14.60;99.90;;;;;;5074244;28;20149;-79
2022/05/17 00:28:33;;;;;;;27.13;7.97;;;14.60;99.90;;;;;;5075326;28;20058;-77
2022/05/17 00:31:00;;;;;;;30.75;7.70;;;14.60;99.90;;;;;;5074995;28;20039;-78
2022/05/17 00:33:26;;;;;;;32.88;7.65;;;14.60;99.90;;;;;;5078649;28;20055;-78
2022/05/17 00:35:52;;;;;;;31.80;8.32;;;14.60;99.90;;;;;;5096116;28;20028;-79
2022/05/17 00:38:18;;;;;;;31.52;7.63;;;14.50;99.90;;;;;;5073784;28;20387;-78
2022/05/17 00:40:44;;;;;;;22.23;7.32;;;14.50;99.90;;;;;;5076169;28;20044;-78
2022/05/17 00:43:13;;;;;;;29.42;8.13;;;14.50;99.90;;;;;;5075539;28;20036;-77
2022/05/17 00:45:46;;;;;;;33.00;7.90;;;14.50;99.90;;;;;;5076911;28;20141;-79
2022/05/17 00:48:18;;;;;;;28.83;7.93;;;14.50;99.90;;;;;;5095457;28;20043;-78
2022/05/17 00:50:47;;;;;;;28.40;7.93;;;14.40;99.90;;;;;;5093713;28;20071;-78
2022/05/17 00:53:31;;;;;;;31.00;7.88;;;14.40;99.90;;;;;;5077604;28;20101;-78
2022/05/17 00:56:01;;;;;;;28.60;8.30;;;14.40;99.90;;;;;;5077938;28;20032;-78
2022/05/17 00:58:28;;;;;;;33.78;8.98;;;14.40;99.90;;;;;;5092198;28;20086;-78
2022/05/17 01:01:06;;;;;;;28.85;8.25;;;14.40;99.90;;;;;;5078477;28;20114;-79
2022/05/17 01:03:55;;;;;;;28.60;8.35;;;14.30;99.90;;;;;;5079938;28;20067;-79
2022/05/17 01:06:24;;;;;;;25.58;8.68;;;14.40;99.90;;;;;;5076256;28;20048;-78
2022/05/17 01:08:50;;;;;;;33.83;9.07;;;14.40;99.90;;;;;;5079820;28;20373;-79
2022/05/17 01:11:16;;;;;;;29.95;8.85;;;14.30;99.90;;;;;;5077583;28;20104;-79
2022/05/17 01:16:28;;;;;;;29.33;9.77;;;14.30;99.90;;;;;;5103238;27;20047;-75
2022/05/17 01:18:56;;;;;;;30.77;10.00;;;14.20;99.90;;;;;;5082068;28;21220;-76
2022/05/17 01:21:22;;;;;;;29.42;9.65;;;14.20;99.90;;;;;;5100329;28;20043;-77
2022/05/17 01:23:47;;;;;;;32.92;10.45;;;14.30;99.90;;;;;;5093025;28;20043;-77
2022/05/17 01:26:20;;;;;;;34.08;10.77;;;14.20;99.90;;;;;;5076867;28;20168;-77
2022/05/17 01:28:47;;;;;;;31.13;10.88;;;14.20;99.90;;;;;;5092131;28;20146;-77
2022/05/17 01:31:14;;;;;;;33.05;11.02;;;14.10;99.90;;;;;;5072794;28;20048;-78
2022/05/17 01:33:40;;;;;;;32.70;10.27;;;14.10;99.90;;;;;;5076919;28;20046;-77
2022/05/17 01:36:09;;;;;;;28.63;10.30;;;14.10;99.90;;;;;;5088738;28;20039;-79
2022/05/17 01:38:36;;;;;;;32.80;10.48;;;14.10;99.90;;;;;;5079346;28;20388;-75
2022/05/17 01:41:03;;;;;;;34.72;10.55;;;14.00;99.90;;;;;;5074921;28;20093;-75
2022/05/17 01:43:28;;;;;;;36.05;11.00;;;14.00;99.90;;;;;;5095423;28;20592;-75
2022/05/17 01:45:54;;;;;;;31.83;10.77;;;14.00;99.90;;;;;;5094394;28;20069;-75
2022/05/17 01:48:20;;;;;;;28.98;10.65;;;14.00;99.90;;;;;;5095306;28;20071;-76
2022/05/17 01:50:46;;;;;;;26.23;10.02;;;13.90;99.90;;;;;;5072809;28;20086;-76
2022/05/17 01:53:11;;;;;;;29.55;10.10;;;14.00;99.90;;;;;;5094848;28;20163;-76
2022/05/17 01:55:40;;;;;;;37.22;10.98;;;14.10;99.90;;;;;;5090221;28;20040;-76
2022/05/17 01:58:06;;;;;;;37.30;10.95;;;13.90;99.90;;;;;;5099704;28;20036;-76
2022/05/17 02:00:32;;;;;;;33.15;10.48;;;13.90;99.90;;;;;;5095734;28;20051;-76
2022/05/17 02:02:58;;;;;;;35.22;11.00;;;14.00;99.90;;;;;;5089042;28;20127;-75
2022/05/17 02:05:25;;;;;;;34.22;10.18;;;13.90;99.90;;;;;;5093684;28;20044;-76
2022/05/17 02:07:51;;;;;;;33.70;11.20;;;13.90;99.90;;;;;;5091674;28;20036;-76
2022/05/17 02:10:19;;;;;;;31.80;10.40;;;13.90;99.90;;;;;;5090799;28;20120;-77
2022/05/17 02:12:44;;;;;;;27.60;10.35;;;13.90;99.90;;;;;;5090610;28;20475;-77
2022/05/17 02:15:11;;;;;;;33.38;10.15;;;13.90;99.90;;;;;;5077556;28;20130;-77
2022/05/17 02:17:38;;;;;;;30.25;10.35;;;13.90;99.90;;;;;;5085111;28;20100;-78
2022/05/17 02:20:05;;;;;;;37.22;10.90;;;13.80;99.90;;;;;;5090307;28;20414;-78
2022/05/17 02:22:31;;;;;;;26.45;9.60;;;13.80;99.90;;;;;;5091517;28;20055;-77
2022/05/17 02:24:57;;;;;;;31.45;9.73;;;13.80;99.90;;;;;;5073695;28;20035;-77
2022/05/17 02:27:22;;;;;;;36.30;9.93;;;13.80;99.90;;;;;;5077509;28;20176;-77
2022/05/17 02:29:48;;;;;;;26.42;9.50;;;13.90;99.90;;;;;;5092967;28;20047;-80
2022/05/17 02:32:14;;;;;;;30.90;9.27;;;13.70;99.90;;;;;;5098292;28;20422;-80
2022/05/17 02:34:41;;;;;;;33.05;9.77;;;13.70;99.90;;;;;;5074812;28;20052;-79
2022/05/17 02:37:07;;;;;;;32.47;9.68;;;13.80;99.90;;;;;;5096771;28;20036;-78
2022/05/17 02:39:34;;;;;;;26.13;9.32;;;13.70;99.90;;;;;;5096182;28;20389;-77
2022/05/17 02:42:00;;;;;;;34.80;10.15;;;13.70;99.90;;;;;;5087197;28;20027;-75
2022/05/17 02:44:28;;;;;;;28.92;9.95;;;13.70;99.90;;;;;;5105123;28;20082;-74
2022/05/17 02:46:54;;;;;;;27.67;9.75;;;13.70;99.90;;;;;;5102875;28;20050;-78
2022/05/17 02:49:20;;;;;;;28.00;9.82;;;13.60;99.90;;;;;;5078292;28;20108;-77
2022/05/17 02:51:45;;;;;;;34.65;10.27;;;13.80;99.90;;;;;;5095800;28;20112;-77
2022/05/17 02:54:11;;;;;;;26.77;9.20;;;13.60;99.90;;;;;;5094979;28;20039;-79
2022/05/17 02:56:37;;;;;;;30.88;9.93;;;13.70;99.90;;;;;;5091861;28;20043;-77
2022/05/17 02:59:04;;;;;;;31.95;9.68;;;13.60;99.90;;;;;;5094852;28;20044;-79
2022/05/17 03:01:30;;;;;;;30.20;9.57;;;13.50;99.90;;;;;;5075924;28;20060;-76
2022/05/17 03:03:55;;;;;;;28.38;9.70;;;13.60;99.90;;;;;;5095385;28;20278;-79
2022/05/17 03:06:21;;;;;;;27.05;9.48;;;13.60;99.90;;;;;;5091757;28;20171;-77
2022/05/17 03:08:47;;;;;;;24.23;8.95;;;13.40;99.90;;;;;;5092673;28;20052;-78
2022/05/17 03:11:13;;;;;;;26.02;8.77;;;13.50;99.90;;;;;;5099559;28;20412;-78
2022/05/17 03:13:39;;;;;;;25.02;8.65;;;13.40;99.90;;;;;;5069501;28;20036;-76
2022/05/17 03:16:05;;;;;;;23.52;8.75;;;13.40;99.90;;;;;;5074379;28;20104;-76
2022/05/17 03:18:31;;;;;;;31.23;9.35;;;13.40;99.90;;;;;;5089860;28;20055;-77
2022/05/17 03:20:56;;;;;;;25.20;8.73;;;13.40;99.90;;;;;;5089404;28;20031;-79
2022/05/17 03:23:22;;;;;;;23.70;8.18;;;13.40;99.90;;;;;;5072103;28;20086;-79
2022/05/17 03:25:48;;;;;;;30.02;9.32;;;13.30;99.90;;;;;;5075467;28;20168;-78
2022/05/17 03:28:14;;;;;;;27.70;8.98;;;13.40;99.90;;;;;;5087136;28;20040;-78
2022/05/17 03:30:41;;;;;;;28.20;8.82;;;13.30;99.90;;;;;;5072713;28;20566;-77
2022/05/17 03:33:07;;;;;;;27.80;8.68;;;13.30;99.90;;;;;;5071707;28;20490;-77
2022/05/17 03:35:33;;;;;;;32.33;9.25;;;13.40;99.90;;;;;;5088242;28;20047;-78
2022/05/17 03:38:02;;;;;;;25.50;8.35;;;13.30;99.90;;;;;;5090312;28;20054;-77
2022/05/17 03:40:28;;;;;;;24.52;8.65;;;13.30;99.90;;;;;;5092996;28;20107;-77
2022/05/17 03:42:53;;;;;;;29.65;8.63;;;13.20;99.90;;;;;;5095454;28;20595;-79
2022/05/17 03:45:19;;;;;;;27.63;8.30;;;13.20;99.90;;;;;;5091677;28;20136;-77
2022/05/17 03:47:45;;;;;;;24.10;8.18;;;13.20;99.90;;;;;;5079463;28;20118;-78
2022/05/17 03:50:12;;;;;;;24.27;8.10;;;13.10;99.90;;;;;;5075714;28;20044;-78
2022/05/17 03:52:38;;;;;;;20.60;7.80;;;13.20;99.90;;;;;;5091814;28;20036;-78
2022/05/17 03:55:06;;;;;;;24.33;7.90;;;13.20;99.90;;;;;;5091154;28;20482;-78
2022/05/17 03:57:32;;;;;;;21.00;7.85;;;13.20;99.90;;;;;;5093460;28;20461;-81
2022/05/17 03:59:58;;;;;;;27.00;8.15;;;13.20;99.90;;;;;;5082775;28;20135;-79
2022/05/17 04:02:24;;;;;;;25.27;8.63;;;13.30;99.90;;;;;;5091211;28;20066;-77
2022/05/17 04:04:54;;;;;;;23.30;7.80;;;13.30;99.90;;;;;;5113390;27;20043;-78
2022/05/17 04:07:21;;;;;;;18.38;7.65;;;13.40;99.90;;;;;;5095549;28;20044;-78
2022/05/17 04:09:47;;;;;;;28.25;8.05;;;13.40;99.90;;;;;;5090103;28;20040;-78
2022/05/17 04:12:13;;;;;;;29.55;8.07;;;13.50;99.90;;;;;;5108935;28;20040;-75
2022/05/17 04:14:39;;;;;;;28.05;7.85;;;13.50;99.90;;;;;;5087953;28;20060;-78
2022/05/17 04:17:06;;;;;;;29.95;8.25;;;13.60;99.90;;;;;;5086157;28;20049;-78
2022/05/17 04:19:31;;;;;;;28.08;7.75;;;13.70;99.90;;;;;;5095643;28;20031;-78
2022/05/17 04:22:00;;;;;;;23.67;7.85;;;13.80;99.90;;;;;;5097295;28;20096;-79
2022/05/17 04:24:26;;;;;;;29.77;7.60;;;13.80;99.90;;;;;;5091851;28;20142;-78
2022/05/17 04:26:53;;;;;;;21.67;7.13;;;13.90;99.90;;;;;;5116477;27;20075;-77
2022/05/17 04:29:19;;;;;;;27.35;8.00;;;14.00;99.90;;;;;;5079483;28;20083;-78
2022/05/17 04:31:44;;;;;;;24.13;7.47;;;14.10;99.90;;;;;;5092968;28;20043;-78
2022/05/17 04:34:10;;;;;;;24.08;7.38;;;14.10;99.90;;;;;;5091777;28;20493;-79
2022/05/17 04:36:36;;;;;;;18.48;6.80;;;14.30;99.90;;;;;;5075236;28;20135;-78
2022/05/17 04:39:03;;;;;;;23.85;6.60;;;14.40;99.90;;;;;;5076487;28;20056;-78
2022/05/17 04:41:29;;;;;;;25.15;6.63;;;14.50;99.90;;;;;;5092874;28;20123;-78
2022/05/17 04:43:54;;;;;;;23.48;5.90;;;14.60;99.90;;;;;;5073333;28;20111;-76
2022/05/17 04:46:21;;;;;;;17.70;5.45;;;15.00;99.90;;;;;;5091863;28;20128;-79
2022/05/17 04:48:47;;;;;;;17.13;5.78;;;15.20;99.90;;;;;;5091147;28;20139;-78
2022/05/17 04:51:14;;;;;;;23.30;6.10;;;15.40;99.90;;;;;;5081388;28;20061;-77
2022/05/17 04:53:41;;;;;;;21.15;6.00;;;15.50;99.90;;;;;;5076619;28;20046;-77
2022/05/17 04:56:08;;;;;;;26.20;6.50;;;15.70;99.90;;;;;;5072295;28;20121;-75
2022/05/17 04:58:34;;;;;;;22.98;5.90;;;15.90;99.90;;;;;;5091651;28;20036;-78
2022/05/17 05:01:01;;;;;;;17.52;6.05;;;16.00;99.90;;;;;;5094580;28;20055;-75
2022/05/17 05:03:27;;;;;;;23.65;5.68;;;16.00;99.90;;;;;;5087000;28;20538;-77
2022/05/17 05:05:52;;;;;;;20.35;6.13;;;16.10;99.90;;;;;;5088749;28;20067;-77
2022/05/17 05:08:18;;;;;;;20.48;6.07;;;16.10;99.90;;;;;;5086184;28;20040;-73
2022/05/17 05:10:45;;;;;;;24.10;5.88;;;16.10;99.90;;;;;;5094288;28;20055;-76
2022/05/17 05:13:22;;;;;;;21.27;5.03;;;16.20;99.90;;;;;;5091645;28;20090;-76
2022/05/17 05:15:50;;;;;;;24.83;6.07;;;16.20;99.90;;;;;;5088118;28;20044;-74
2022/05/17 05:18:16;;;;;;;19.27;5.07;;;16.20;99.90;;;;;;5093103;28;20040;-78
2022/05/17 05:20:43;;;;;;;17.90;5.32;;;16.30;99.90;;;;;;5072496;28;20032;-81
2022/05/17 05:23:09;;;;;;;21.30;5.68;;;16.40;99.90;;;;;;5090080;28;20122;-77
2022/05/17 05:25:36;;;;;;;17.30;4.65;;;16.50;99.90;;;;;;5092495;28;20055;-74
2022/05/17 05:28:03;;;;;;;21.50;6.15;;;16.40;99.90;;;;;;5095324;28;20135;-78
2022/05/17 05:30:29;;;;;;;21.63;5.88;;;16.60;99.90;;;;;;5097585;28;20067;-76
2022/05/17 05:32:56;;;;;;;19.23;5.25;;;16.50;99.90;;;;;;5103002;28;20051;-74
2022/05/17 05:35:22;;;;;;;22.80;6.10;;;16.60;99.90;;;;;;5091856;28;20048;-73
2022/05/17 05:37:49;;;;;;;15.77;5.28;;;16.50;99.90;;;;;;5100394;28;20056;-74
2022/05/17 05:40:15;;;;;;;23.10;7.05;;;16.50;99.90;;;;;;5090628;28;20372;-77
2022/05/17 05:42:41;;;;;;;25.33;6.70;;;16.60;99.90;;;;;;5084104;28;20053;-73
2022/05/17 05:45:09;;;;;;;22.58;6.57;;;16.50;99.90;;;;;;5075355;28;20359;-75
2022/05/17 05:47:34;;;;;;;21.20;6.13;;;16.60;99.90;;;;;;5076669;28;20032;-76
2022/05/17 05:50:00;;;;;;;22.17;5.90;;;16.60;99.90;;;;;;5092113;28;20144;-73
2022/05/17 05:52:26;;;;;;;19.67;6.45;;;16.80;99.90;;;;;;5074051;28;20044;-72
2022/05/17 05:54:52;;;;;;;18.58;5.65;;;16.70;99.90;;;;;;5089010;28;20485;-72
2022/05/17 05:57:18;;;;;;;19.48;6.22;;;16.80;99.90;;;;;;5096643;28;20039;-72
2022/05/17 05:59:44;;;;;;;18.52;6.30;;;16.80;99.90;;;;;;5094021;28;20047;-76
2022/05/17 06:02:11;;;;;;;17.92;5.55;;;16.80;99.90;;;;;;5094557;28;20038;-74
2022/05/17 06:04:37;;;;;;;22.73;6.13;;;16.80;99.90;;;;;;5091067;28;20076;-72
2022/05/17 06:07:04;;;;;;;17.63;5.78;;;16.80;99.90;;;;;;5075358;28;20043;-74
2022/05/17 06:09:30;;;;;;;21.13;5.70;;;16.70;99.90;;;;;;5090590;28;20130;-74
2022/05/17 06:11:55;;;;;;;20.50;5.22;;;16.70;99.90;;;;;;5099680;28;20130;-73
2022/05/17 06:14:21;;;;;;;23.88;6.43;;;16.70;99.90;;;;;;5099030;28;20039;-74
2022/05/17 06:16:51;;;;;;;20.05;6.30;;;16.90;99.90;;;;;;5089689;28;21440;-76
2022/05/17 06:19:18;;;;;;;26.15;6.60;;;17.00;99.90;;;;;;5089562;28;20036;-75
2022/05/17 06:21:44;;;;;;;36.42;6.72;;;16.90;99.90;;;;;;5079907;28;20032;-77
2022/05/17 06:24:10;;;;;;;25.50;6.10;;;16.90;99.90;;;;;;5075710;28;20092;-77
2022/05/17 06:26:36;;;;;;;17.92;5.38;;;16.80;99.90;;;;;;5077076;28;20427;-77
2022/05/17 06:29:03;;;;;;;15.40;4.65;;;16.80;99.90;;;;;;5078304;28;20407;-76
2022/05/17 06:31:30;;;;;;;20.40;5.55;;;16.90;99.90;;;;;;5080548;28;20070;-78
2022/05/17 06:33:56;;;;;;;23.42;5.15;;;16.90;99.90;;;;;;5092307;28;20055;-77
2022/05/17 06:36:22;;;;;;;18.48;5.28;;;16.90;99.90;;;;;;5083669;28;20156;-78
2022/05/17 06:38:47;;;;;;;18.65;5.18;;;16.90;99.90;;;;;;5075705;28;20092;-76
2022/05/17 06:41:13;;;;;;;22.40;4.97;;;16.90;99.90;;;;;;5094380;28;20047;-76
2022/05/17 06:43:39;;;;;;;22.58;5.38;;;17.00;99.90;;;;;;5082034;28;20044;-79
2022/05/17 06:46:05;;;;;;;20.55;4.90;;;17.00;99.90;;;;;;5083384;28;20383;-78
2022/05/17 06:48:31;;;;;;;26.02;5.25;;;16.90;99.90;;;;;;5076187;28;20046;-78
2022/05/17 06:51:05;;;;;;;21.00;5.00;;;17.00;99.90;;;;;;5093103;28;20048;-79
2022/05/17 06:53:31;;;;;;;28.10;5.50;;;17.00;99.90;;;;;;5092514;28;20032;-76
2022/05/17 06:55:57;;;;;;;21.95;5.32;;;17.00;99.90;;;;;;5080716;28;20586;-77
2022/05/17 06:58:23;;;;;;;20.55;5.35;;;17.00;99.90;;;;;;5101631;28;20139;-78
2022/05/17 07:00:49;;;;;;;20.30;5.15;;;17.10;99.90;;;;;;5080256;28;20075;-75
2022/05/17 07:03:15;;;;;;;22.23;5.25;;;17.20;99.90;;;;;;5083412;28;20783;-74
2022/05/17 07:05:41;;;;;;;21.30;4.80;;;17.20;99.90;;;;;;5083697;28;20052;-77
2022/05/17 07:08:07;;;;;;;19.55;4.35;;;17.20;99.90;;;;;;5096420;28;20463;-77
2022/05/17 07:13:17;;;;;;;15.98;5.05;;;17.30;99.90;;;;;;5090202;28;20112;-78
2022/05/17 07:15:46;;;;;;;16.48;4.55;;;17.40;99.90;;;;;;5089799;28;20112;-76
2022/05/17 07:18:15;;;;;;;23.13;4.55;;;17.50;99.90;;;;;;5087343;28;20445;-76
2022/05/17 07:20:43;;;;;;;21.15;5.00;;;17.60;99.90;;;;;;5092713;28;20044;-75
2022/05/17 07:23:09;;;;;;;17.95;4.72;;;17.50;99.90;;;;;;5080651;28;20092;-77
2022/05/17 07:25:36;;;;;;;19.77;5.93;;;17.60;99.90;;;;;;5075088;28;20040;-73
2022/05/17 07:28:02;;;;;;;20.33;5.10;;;17.60;99.90;;;;;;5086082;28;21226;-75
2022/05/17 07:30:28;;;;;;;21.42;5.63;;;17.60;99.90;;;;;;5086929;28;20162;-75
2022/05/17 07:32:53;;;;;;;19.38;5.15;;;17.60;99.90;;;;;;5089816;28;20040;-77
2022/05/17 07:35:19;;;;;;;19.60;4.78;;;17.60;99.90;;;;;;5070248;28;20050;-79
2022/05/17 07:37:45;;;;;;;24.75;5.65;;;17.70;99.90;;;;;;5085309;28;20484;-79
2022/05/17 07:40:12;;;;;;;25.05;5.63;;;17.70;99.90;;;;;;5087590;28;20130;-79
2022/05/17 07:42:40;;;;;;;24.20;5.40;;;17.80;99.90;;;;;;5069868;28;20044;-78
2022/05/17 07:45:07;;;;;;;20.75;5.45;;;17.90;99.90;;;;;;5071993;28;20065;-78
2022/05/17 07:47:33;;;;;;;24.50;5.50;;;17.90;99.90;;;;;;5088992;28;20052;-77
2022/05/17 07:49:59;;;;;;;16.15;4.55;;;17.90;99.90;;;;;;5086633;28;20055;-81
2022/05/17 07:52:25;;;;;;;15.43;4.50;;;18.10;99.90;;;;;;5085497;28;20062;-78
2022/05/17 07:54:51;;;;;;;17.70;5.10;;;18.10;99.90;;;;;;5091364;28;20043;-79
2022/05/17 07:57:16;;;;;;;23.80;5.60;;;18.10;99.90;;;;;;5073318;28;20135;-81
2022/05/17 07:59:46;;;;;;;20.55;4.47;;;18.30;99.90;;;;;;5090742;28;20050;-80
2022/05/17 08:02:15;;;;;;;15.63;4.32;;;18.40;99.90;;;;;;5090754;28;20795;-79
2022/05/17 08:04:41;;;;;;;16.90;4.53;;;18.50;99.90;;;;;;5089681;28;20044;-79
2022/05/17 08:07:26;;;;;;;18.05;5.00;;;18.50;99.90;;;;;;5092033;28;20043;-78
2022/05/17 08:09:51;;;;;;;16.97;4.50;;;18.60;99.90;;;;;;5107847;28;20135;-77
2022/05/17 08:12:17;;;;;;;16.52;4.43;;;18.60;99.90;;;;;;5086452;28;20084;-80
2022/05/17 08:14:44;;;;;;;21.30;5.10;;;18.60;99.90;;;;;;5072951;28;20087;-78
2022/05/17 08:17:10;;;;;;;20.40;5.13;;;18.70;99.90;;;;;;5089698;28;20100;-78
2022/05/17 08:19:37;;;;;;;19.67;5.47;;;18.80;99.90;;;;;;5089267;28;20137;-76
2022/05/17 08:22:04;;;;;;;23.30;5.35;;;18.80;99.90;;;;;;5090003;28;20051;-77
2022/05/17 08:27:31;;;;;;;17.38;4.78;;;18.70;99.90;;;;;;5080483;28;20051;-76
2022/05/17 08:27:37;;;;;;;24.27;5.75;;;18.70;99.90;;;;;;5122594;28;20051;-74
2022/05/17 08:30:08;;;;;;;19.42;5.60;;;18.90;99.90;;;;;;5088126;28;20355;-78
2022/05/17 08:35:19;;;;;;;20.08;4.93;;;18.90;99.90;;;;;;5098234;28;20197;-79
2022/05/17 08:37:46;;;;;;;18.90;5.55;;;19.00;99.90;;;;;;5089168;28;20560;-78
2022/05/17 08:40:18;;;;;;;23.70;5.72;;;19.00;99.90;;;;;;5073795;28;20048;-77
2022/05/17 08:43:25;;;;;;;19.40;5.30;;;19.20;99.90;;;;;;5089629;28;20048;-77
2022/05/17 08:46:21;;;;;;;20.60;5.43;;;19.40;99.90;;;;;;5028423;28;20074;-80
2022/05/17 08:49:17;;;;;;;21.30;5.53;;;19.50;99.90;;;;;;4970646;28;20563;-76
2022/05/17 08:51:53;;;;;;;19.13;5.07;;;19.50;99.90;;;;;;4957551;28;20058;-77
2022/05/17 08:54:24;;;;;;;18.80;5.28;;;19.70;99.90;;;;;;4974629;28;20101;-78
2022/05/17 08:57:16;;;;;;;15.15;3.97;;;19.80;99.90;;;;;;4974311;28;20678;-80
2022/05/17 08:59:43;;;;;;;21.05;5.43;;;19.80;99.90;;;;;;4917805;29;20055;-78
2022/05/17 09:02:34;;;;;;;17.92;4.78;;;19.80;99.90;;;;;;4937673;29;20077;-76
2022/05/17 09:05:10;;;;;;;20.30;4.88;;;20.00;99.90;;;;;;4899643;29;20048;-78
2022/05/17 09:08:07;;;;;;;15.57;4.88;;;20.10;99.90;;;;;;4908062;29;20138;-78
2022/05/17 09:10:43;;;;;;;15.90;5.05;;;20.20;99.90;;;;;;4919057;29;20070;-77
2022/05/17 09:13:20;;;;;;;19.75;4.97;;;20.10;99.90;;;;;;4918501;29;20100;-78
2022/05/17 09:15:46;;;;;;;24.40;5.25;;;20.20;99.90;;;;;;4924932;29;20061;-78
2022/05/17 09:18:16;;;;;;;21.48;4.57;;;20.10;99.90;;;;;;4935496;29;20110;-79
2022/05/17 09:20:45;;;;;;;16.85;4.57;;;20.40;99.90;;;;;;4932583;29;20090;-78
2022/05/17 09:23:11;;;;;;;16.13;4.50;;;20.30;99.90;;;;;;4937360;28;20097;-78
2022/05/17 09:25:50;;;;;;;15.68;4.60;;;20.40;99.90;;;;;;4980644;28;20069;-77
2022/05/17 09:28:22;;;;;;;13.05;4.18;;;20.40;99.90;;;;;;5002471;28;20053;-77
2022/05/17 09:30:48;;;;;;;15.90;3.85;;;20.40;99.90;;;;;;5012312;28;20050;-77
2022/05/17 09:33:20;;;;;;;21.35;4.47;;;20.50;99.90;;;;;;5015661;28;20038;-79
2022/05/17 09:39:27;;;;;;;15.70;3.70;;;20.60;99.90;;;;;;5111575;28;20109;-78
2022/05/17 09:41:57;;;;;;;16.13;4.07;;;20.70;99.90;;;;;;5078276;28;20470;-77
2022/05/17 09:44:26;;;;;;;17.73;3.80;;;20.70;99.90;;;;;;5087217;28;20053;-79
2022/05/17 09:47:00;;;;;;;24.20;4.72;;;20.80;99.90;;;;;;5082288;28;20166;-80
2022/05/17 09:55:09;;;;;;;16.35;3.80;;;21.10;99.90;;;;;;5100374;28;20847;-79
2022/05/17 09:57:36;;;;;;;13.13;3.67;;;20.90;99.90;;;;;;5100117;28;20051;-79
2022/05/17 10:00:12;;;;;;;15.82;3.72;;;21.10;99.90;;;;;;5099055;28;20047;-78
2022/05/17 10:02:40;;;;;;;18.70;4.30;;;21.50;99.90;;;;;;5088539;28;20042;-78
2022/05/17 10:05:20;;;;;;;17.33;3.67;;;21.60;99.90;;;;;;5105788;28;20043;-77
2022/05/17 10:07:53;;;;;;;19.67;4.30;;;21.90;99.90;;;;;;5099857;28;20035;-81
2022/05/17 10:10:29;;;;;;;12.75;3.60;;;21.90;99.90;;;;;;5077764;28;20048;-79
2022/05/17 10:13:03;;;;;;;12.35;3.70;;;21.80;99.90;;;;;;5093730;28;20051;-78
2022/05/17 10:15:32;;;;;;;13.15;3.38;;;21.90;99.90;;;;;;5092536;28;20139;-77
2022/05/17 10:18:05;;;;;;;14.35;3.40;;;21.80;99.90;;;;;;5112055;28;20035;-75
2022/05/17 10:20:38;;;;;;;13.80;3.63;;;22.00;99.90;;;;;;5113309;28;20113;-77
2022/05/17 10:23:53;;;;;;;13.88;3.65;;;22.10;99.90;;;;;;5109547;28;20040;-77
2022/05/17 10:26:26;;;;;;;10.35;2.70;;;22.30;99.90;;;;;;5121144;28;20035;-76
2022/05/17 10:29:20;;;;;;;10.88;3.22;;;22.40;99.90;;;;;;5100592;28;20125;-77
2022/05/17 10:32:05;;;;;;;15.55;3.40;;;22.50;99.90;;;;;;5086621;28;20051;-77
2022/05/17 10:34:45;;;;;;;11.88;3.00;;;22.50;99.90;;;;;;5081473;28;20081;-77
2022/05/17 10:37:21;;;;;;;11.98;2.42;;;22.50;99.90;;;;;;5079193;28;20043;-80
2022/05/17 10:40:15;;;;;;;13.80;3.78;;;22.60;99.90;;;;;;5091309;28;20343;-81
2022/05/17 10:42:42;;;;;;;11.00;2.85;;;22.50;99.90;;;;;;5077231;28;20039;-80
2022/05/17 10:45:16;;;;;;;11.00;2.90;;;22.80;99.90;;;;;;5079822;28;20047;-81
2022/05/17 10:48:05;;;;;;;15.38;3.50;;;23.10;99.90;;;;;;5094385;28;20044;-80
2022/05/17 10:50:52;;;;;;;13.02;2.85;;;23.10;99.90;;;;;;5084541;28;20116;-78
2022/05/17 10:53:42;;;;;;;15.75;3.10;;;23.20;99.90;;;;;;5078731;28;20079;-80
2022/05/17 10:56:26;;;;;;;16.88;3.35;;;23.10;99.90;;;;;;5093393;28;20139;-78
2022/05/17 10:59:06;;;;;;;13.32;3.20;;;22.90;99.90;;;;;;5091985;28;20051;-79
2022/05/17 11:01:40;;;;;;;14.63;3.45;;;22.50;99.90;;;;;;5072944;28;20055;-78
2022/05/17 11:04:37;;;;;;;13.57;2.65;;;22.20;99.90;;;;;;5094092;28;20101;-80
2022/05/17 11:07:23;;;;;;;11.90;2.72;;;22.00;99.90;;;;;;5089118;28;20504;-78
2022/05/17 11:09:59;;;;;;;9.00;2.53;;;22.30;99.90;;;;;;5082434;28;20078;-79
2022/05/17 11:12:32;;;;;;;10.77;2.60;;;22.80;99.90;;;;;;5083476;28;20048;-77
2022/05/17 11:15:17;;;;;;;11.07;2.40;;;23.10;99.90;;;;;;5084393;28;20052;-79
2022/05/17 11:17:54;;;;;;;;;;;23.50;99.90;;;;;;5103467;28;20082;-78
2022/05/17 11:20:38;;;;;;;10.20;2.30;;;23.30;99.90;;;;;;5098669;28;19926;-81
2022/05/17 11:23:31;;;;;;;9.80;2.33;;;23.10;99.90;;;;;;5075619;28;20445;-78
2022/05/17 11:26:02;;;;;;;11.23;2.75;;;23.00;99.90;;;;;;5080850;28;20445;-78
2022/05/17 11:28:44;;;;;;;9.32;2.22;;;23.20;99.90;;;;;;5075011;28;20062;-79
2022/05/17 11:31:17;;;;;;;14.02;2.58;;;23.30;99.90;;;;;;5089607;28;20052;-79
2022/05/17 11:33:43;;;;;;;6.75;1.67;;;23.50;99.90;;;;;;5099368;28;20047;-80
2022/05/17 11:36:12;;;;;;;7.45;1.83;;;23.60;99.90;;;;;;5076593;28;20044;-78
2022/05/17 11:38:46;;;;;;;8.65;2.17;;;23.60;99.90;;;;;;5088728;28;20040;-80
2022/05/17 11:41:19;;;;;;;6.93;1.95;;;23.90;99.90;;;;;;5073597;28;20051;-79
2022/05/17 11:43:52;;;;;;;9.45;2.20;;;24.40;99.10;;;;;;5099408;28;20126;-80
2022/05/17 11:46:33;;;;;;;8.90;2.58;;;24.20;99.60;;;;;;5097950;28;20080;-80
2022/05/17 11:49:18;;;;;;;9.85;2.25;;;24.50;99.50;;;;;;5091182;28;20140;-80
2022/05/17 11:51:59;;;;;;;14.02;2.53;;;24.10;99.90;;;;;;5072955;28;20052;-80
2022/05/17 11:54:42;;;;;;;9.55;2.03;;;24.10;99.50;;;;;;5093326;28;20184;-81
2022/05/17 11:57:38;;;;;;;10.50;2.50;;;23.80;99.20;;;;;;5084555;28;20131;-78
2022/05/17 12:00:22;;;;;;;10.20;2.40;;;24.10;99.90;;;;;;5090927;28;20051;-78
2022/05/17 12:02:59;;;;;;;10.40;2.72;;;24.70;99.90;;;;;;5099896;28;20502;-80
2022/05/17 12:05:37;;;;;;;11.05;2.70;;;25.10;99.60;;;;;;5091514;28;20040;-80
2022/05/17 12:08:43;;;;;;;11.20;2.83;;;25.20;98.80;;;;;;5071940;28;20782;-79
2022/05/17 12:11:11;;;;;;;8.05;2.40;;;25.50;99.90;;;;;;5094223;28;20032;-83
2022/05/17 12:13:44;;;;;;;11.07;2.65;;;25.70;99.70;;;;;;5103611;28;20542;-79
2022/05/17 12:16:14;;;;;;;11.82;2.58;;;25.70;99.30;;;;;;5100270;28;20051;-81
2022/05/17 12:18:45;;;;;;;14.10;2.78;;;25.60;98.50;;;;;;5074054;28;20079;-81
2022/05/17 12:21:48;;;;;;;12.52;2.58;;;25.50;98.60;;;;;;5090454;28;20127;-80
2022/05/17 12:24:58;;;;;;;13.32;2.67;;;25.20;98.40;;;;;;5079307;28;20098;-80
2022/05/17 12:27:36;;;;;;;11.43;2.72;;;25.90;98.60;;;;;;5054486;28;20044;-82
2022/05/17 12:33:05;;;;;;;6.90;2.20;;;26.70;96.60;;;;;;5074975;28;20071;-80
2022/05/17 12:35:31;;;;;;;6.45;1.95;;;27.20;96.30;;;;;;5074833;28;20072;-82
2022/05/17 12:44:38;;;;;;;9.20;2.10;;;27.80;92.30;;;;;;5079907;28;20436;-80
2022/05/17 12:47:15;;;;;;;8.32;1.90;;;27.90;91.80;;;;;;5050684;28;20036;-85
2022/05/17 12:49:42;;;;;;;5.35;1.50;;;27.80;90.90;;;;;;5046451;28;20039;-83
2022/05/17 12:52:17;;;;;;;5.03;1.80;;;27.90;90.10;;;;;;5055851;28;20062;-84
2022/05/17 12:54:49;;;;;;;5.15;1.60;;;28.40;87.20;;;;;;5074062;28;20143;-79
2022/05/17 12:57:21;;;;;;;8.90;2.22;;;28.70;85.60;;;;;;5074959;28;20139;-81
2022/05/17 12:59:47;;;;;;;7.68;2.10;;;29.10;87.20;;;;;;5068776;28;20048;-81
2022/05/17 13:02:22;;;;;;;7.75;2.10;;;29.20;81.70;;;;;;5060758;28;20125;-82
2022/05/17 13:04:47;;;;;;;9.35;1.90;;;29.40;79.90;;;;;;5086449;28;20059;-80
2022/05/17 13:07:17;;;;;;;5.75;1.98;;;29.10;79.70;;;;;;5096863;28;20086;-81
2022/05/17 13:10:00;;;;;;;7.50;2.35;;;29.10;81.00;;;;;;5103770;28;20059;-82
2022/05/17 13:12:29;;;;;;;6.50;2.00;;;29.80;77.40;;;;;;5096537;28;20059;-78
2022/05/17 13:14:56;;;;;;;8.00;1.75;;;29.40;75.00;;;;;;5099240;28;20043;-78
2022/05/17 13:17:33;;;;;;;6.15;1.75;;;29.10;76.80;;;;;;5077376;28;20109;-78
2022/05/17 13:20:08;;;;;;;6.90;1.88;;;28.60;75.70;;;;;;5096373;28;20069;-79
2022/05/17 13:22:37;;;;;;;6.93;1.83;;;28.30;75.90;;;;;;5075245;28;20047;-80